createdAt,value
2017-03-25T15:00:19.303Z,13.80
2017-03-25T15:01:18.792Z,13.80
2017-03-25T15:02:17.909Z,13.70
2017-03-25T15:03:17.867Z,13.70
2017-03-25T15:04:17.006Z,13.70
2017-03-25T15:05:16.166Z,13.70
2017-03-25T15:06:15.415Z,13.70
2017-03-25T15:07:14.672Z,13.60
2017-03-25T15:08:13.870Z,13.60
2017-03-25T15:09:13.033Z,13.70
2017-03-25T15:10:12.917Z,13.60
2017-03-25T15:11:12.106Z,13.60
2017-03-25T15:12:11.396Z,13.60
2017-03-25T15:13:10.517Z,13.60
2017-03-25T15:14:09.896Z,13.60
2017-03-25T15:15:09.758Z,13.60
2017-03-25T15:16:08.894Z,13.60
2017-03-25T15:17:08.005Z,13.70
2017-03-25T15:18:07.174Z,13.70
2017-03-25T15:19:06.392Z,13.70
2017-03-25T15:20:05.623Z,13.70
2017-03-25T15:21:05.188Z,13.70
2017-03-25T15:22:04.763Z,13.70
2017-03-25T15:23:04.013Z,13.70
2017-03-25T15:24:03.161Z,13.70
2017-03-25T15:25:02.303Z,13.70
2017-03-25T15:26:02.669Z,13.60
2017-03-25T15:27:02.067Z,13.60
2017-03-25T15:28:02.326Z,13.60
2017-03-25T15:29:01.471Z,13.60
2017-03-25T15:30:00.654Z,13.50
2017-03-25T15:31:06.085Z,13.50
2017-03-25T15:32:05.259Z,13.50
2017-03-25T15:33:04.728Z,13.50
2017-03-25T15:34:03.896Z,13.50
2017-03-25T15:35:03.057Z,13.40
2017-03-25T15:36:02.307Z,13.40
2017-03-25T15:37:01.594Z,13.40
2017-03-25T15:38:00.731Z,13.30
2017-03-25T15:39:00.234Z,13.30
2017-03-25T15:39:59.503Z,13.30
2017-03-25T15:40:58.655Z,13.30
2017-03-25T15:41:57.812Z,13.30
2017-03-25T15:42:56.901Z,13.40
2017-03-25T15:43:56.086Z,13.40
2017-03-25T15:44:55.564Z,13.40
2017-03-25T15:45:54.714Z,13.40
2017-03-25T15:46:53.815Z,13.50
2017-03-25T15:47:53.007Z,13.50
2017-03-25T15:48:52.151Z,13.60
2017-03-25T15:49:51.344Z,13.60
2017-03-25T15:50:50.837Z,13.70
2017-03-25T15:51:50.011Z,13.70
2017-03-25T15:52:49.238Z,13.70
2017-03-25T15:53:48.364Z,13.70
2017-03-25T15:54:47.566Z,13.70
2017-03-25T15:55:46.811Z,13.70
2017-03-25T15:56:46.455Z,13.70
2017-03-25T15:57:45.640Z,13.70
2017-03-25T15:58:44.859Z,13.70
2017-03-25T15:59:44.737Z,13.60
2017-03-25T16:00:43.882Z,13.60
2017-03-25T16:01:43.039Z,13.50
2017-03-25T16:02:42.683Z,13.50
2017-03-25T16:03:41.856Z,13.50
2017-03-25T16:04:41.009Z,13.50
2017-03-25T16:05:40.260Z,13.50
2017-03-25T16:06:39.447Z,13.50
2017-03-25T16:07:38.596Z,13.50
2017-03-25T16:08:38.062Z,13.50
2017-03-25T16:09:37.267Z,13.50
2017-03-25T16:10:36.604Z,13.40
2017-03-25T16:11:35.772Z,13.40
2017-03-25T16:12:34.965Z,13.40
2017-03-25T16:13:34.121Z,13.40
2017-03-25T16:14:33.742Z,13.40
2017-03-25T16:15:32.895Z,13.40
2017-03-25T16:16:32.081Z,13.40
2017-03-25T16:17:31.278Z,13.40
2017-03-25T16:18:30.428Z,13.50
2017-03-25T16:19:29.577Z,13.50
2017-03-25T16:20:29.156Z,13.50
2017-03-25T16:21:28.634Z,13.50
2017-03-25T16:22:27.789Z,13.50
2017-03-25T16:23:26.930Z,13.50
2017-03-25T16:24:26.084Z,13.50
2017-03-25T16:25:25.227Z,13.50
2017-03-25T16:26:24.841Z,13.50
2017-03-25T16:27:24.005Z,13.50
2017-03-25T16:28:23.167Z,13.50
2017-03-25T16:29:22.440Z,13.50
2017-03-25T16:30:21.689Z,13.40
2017-03-25T16:31:20.863Z,13.40
2017-03-25T16:32:20.451Z,13.40
2017-03-25T16:33:19.649Z,13.40
2017-03-25T16:34:18.890Z,13.40
2017-03-25T16:35:18.015Z,13.40
2017-03-25T16:36:17.192Z,13.40
2017-03-25T16:37:16.419Z,13.30
2017-03-25T16:38:15.951Z,13.30
2017-03-25T16:39:15.180Z,13.30
2017-03-25T16:40:20.814Z,13.30
2017-03-25T16:41:20.102Z,13.30
2017-03-25T16:42:19.338Z,13.20
2017-03-25T16:43:18.776Z,13.20
2017-03-25T16:44:18.090Z,13.20
2017-03-25T16:45:17.299Z,13.20
2017-03-25T16:46:16.541Z,13.20
2017-03-25T16:47:15.694Z,13.20
2017-03-25T16:48:14.831Z,13.20
2017-03-25T16:49:14.507Z,13.10
2017-03-25T16:50:14.429Z,13.10
2017-03-25T16:51:13.572Z,13.10
2017-03-25T16:52:12.758Z,13.00
2017-03-25T16:53:12.031Z,13.00
2017-03-25T16:54:11.138Z,13.00
2017-03-25T16:55:10.756Z,12.90
2017-03-25T16:56:10.000Z,12.90
2017-03-25T16:57:09.186Z,12.90
2017-03-25T16:58:08.488Z,12.80
2017-03-25T16:59:07.684Z,12.70
2017-03-25T17:00:06.752Z,12.70
2017-03-25T17:01:07.224Z,12.60
2017-03-25T17:02:06.511Z,12.70
2017-03-25T17:03:05.692Z,12.60
2017-03-25T17:04:04.872Z,12.60
2017-03-25T17:05:04.219Z,12.60
2017-03-25T17:06:03.390Z,12.60
2017-03-25T17:07:02.943Z,12.50
2017-03-25T17:08:02.097Z,12.50
2017-03-25T17:09:01.420Z,12.50
2017-03-25T17:10:00.626Z,12.40
2017-03-25T17:10:59.776Z,12.40
2017-03-25T17:11:58.934Z,12.40
2017-03-25T17:12:58.380Z,12.30
2017-03-25T17:13:58.296Z,12.30
2017-03-25T17:14:57.604Z,12.20
2017-03-25T17:15:56.779Z,12.20
2017-03-25T17:16:55.918Z,12.10
2017-03-25T17:17:55.054Z,12.10
2017-03-25T17:18:54.495Z,12.10
2017-03-25T17:19:53.633Z,12.10
2017-03-25T17:20:52.826Z,12.10
2017-03-25T17:21:52.081Z,12.10
2017-03-25T17:22:51.236Z,12.10
2017-03-25T17:23:50.635Z,12.10
2017-03-25T17:24:50.227Z,12.10
2017-03-25T17:25:49.358Z,12.00
2017-03-25T17:26:48.546Z,12.00
2017-03-25T17:27:47.740Z,12.00
2017-03-25T17:28:47.062Z,12.00
2017-03-25T17:29:46.236Z,11.90
2017-03-25T17:30:45.808Z,11.90
2017-03-25T17:31:45.009Z,11.90
2017-03-25T17:32:44.161Z,11.90
2017-03-25T17:33:43.379Z,11.80
2017-03-25T17:34:42.570Z,11.80
2017-03-25T17:35:41.729Z,11.80
2017-03-25T17:36:40.955Z,11.80
2017-03-25T17:37:40.079Z,11.80
2017-03-25T17:38:39.227Z,11.80
2017-03-25T17:39:38.435Z,11.70
2017-03-25T17:40:37.558Z,11.70
2017-03-25T17:41:37.417Z,11.70
2017-03-25T17:42:36.590Z,11.70
2017-03-25T17:43:35.761Z,11.70
2017-03-25T17:44:34.952Z,11.70
2017-03-25T17:45:34.090Z,11.70
2017-03-25T17:46:33.215Z,11.70
2017-03-25T17:47:32.436Z,11.60
2017-03-25T17:48:32.095Z,11.60
2017-03-25T17:49:31.323Z,11.60
2017-03-25T17:50:30.497Z,11.60
2017-03-25T17:51:29.746Z,11.60
2017-03-25T17:52:28.947Z,11.50
2017-03-25T17:53:28.143Z,11.50
2017-03-25T17:54:27.330Z,11.50
2017-03-25T17:55:26.626Z,11.40
2017-03-25T17:56:25.999Z,11.40
2017-03-25T17:57:25.139Z,11.40
2017-03-25T17:58:24.302Z,11.40
2017-03-25T17:59:23.488Z,11.30
2017-03-25T18:00:22.687Z,11.30
2017-03-25T18:01:21.892Z,11.30
2017-03-25T18:02:21.070Z,11.30
2017-03-25T18:03:20.283Z,11.20
2017-03-25T18:04:19.532Z,11.20
2017-03-25T18:05:18.740Z,11.20
2017-03-25T18:06:17.981Z,11.10
2017-03-25T18:07:17.140Z,11.10
2017-03-25T18:08:16.317Z,11.10
2017-03-25T18:09:15.535Z,11.10
2017-03-25T18:10:14.687Z,11.10
2017-03-25T18:11:13.842Z,11.10
2017-03-25T18:12:13.052Z,11.10
2017-03-25T18:13:12.209Z,11.00
2017-03-25T18:14:11.704Z,11.00
2017-03-25T18:15:10.844Z,11.00
2017-03-25T18:16:10.118Z,11.00
2017-03-25T18:17:09.257Z,11.00
2017-03-25T18:18:08.454Z,11.00
2017-03-25T18:19:07.671Z,11.00
2017-03-25T18:20:06.892Z,10.90
2017-03-25T18:21:06.072Z,10.90
2017-03-25T18:22:05.274Z,10.90
2017-03-25T18:23:04.451Z,10.90
2017-03-25T18:24:04.076Z,10.90
2017-03-25T18:25:03.318Z,10.80
2017-03-25T18:26:02.486Z,10.80
2017-03-25T18:27:01.669Z,10.80
2017-03-25T18:28:00.871Z,10.80
2017-03-25T18:29:00.081Z,10.80
2017-03-25T18:29:59.238Z,10.70
2017-03-25T18:30:58.521Z,10.80
2017-03-25T18:31:57.810Z,10.80
2017-03-25T18:32:56.994Z,10.80
2017-03-25T18:33:56.164Z,10.80
2017-03-25T18:34:55.346Z,10.80
2017-03-25T18:35:54.653Z,10.80
2017-03-25T18:36:53.854Z,10.80
2017-03-25T18:37:53.041Z,10.70
2017-03-25T18:38:52.212Z,10.70
2017-03-25T18:39:51.377Z,10.70
2017-03-25T18:40:50.577Z,10.70
2017-03-25T18:41:49.856Z,10.70
2017-03-25T18:42:49.058Z,10.70
2017-03-25T18:43:48.257Z,10.70
2017-03-25T18:44:47.415Z,10.80
2017-03-25T18:45:46.612Z,10.80
2017-03-25T18:46:45.785Z,10.80
2017-03-25T18:47:45.264Z,10.80
2017-03-25T18:48:45.225Z,10.70
2017-03-25T18:49:44.394Z,10.70
2017-03-25T18:50:43.583Z,10.70
2017-03-25T18:51:42.754Z,10.70
2017-03-25T18:52:41.982Z,10.60
2017-03-25T18:53:41.215Z,10.60
2017-03-25T18:54:41.141Z,10.60
2017-03-25T18:55:40.296Z,10.60
2017-03-25T18:56:40.177Z,10.60
2017-03-25T18:57:39.346Z,10.60
2017-03-25T18:58:38.537Z,10.50
2017-03-25T18:59:38.085Z,10.50
2017-03-25T19:00:37.240Z,10.50
2017-03-25T19:01:36.440Z,10.50
2017-03-25T19:02:35.657Z,10.40
2017-03-25T19:03:34.843Z,10.40
2017-03-25T19:04:34.039Z,10.40
2017-03-25T19:05:33.579Z,10.40
2017-03-25T19:06:32.714Z,10.30
2017-03-25T19:07:31.972Z,10.40
2017-03-25T19:08:31.189Z,10.30
2017-03-25T19:09:30.352Z,10.30
2017-03-25T19:10:30.332Z,10.30
2017-03-25T19:11:29.857Z,10.30
2017-03-25T19:12:29.055Z,10.30
2017-03-25T19:13:28.293Z,10.30
2017-03-25T19:14:27.489Z,10.20
2017-03-25T19:15:26.751Z,10.20
2017-03-25T19:16:26.031Z,10.20
2017-03-25T19:17:25.661Z,10.20
2017-03-25T19:18:24.931Z,10.20
2017-03-25T19:19:24.259Z,10.20
2017-03-25T19:20:23.428Z,10.20
2017-03-25T19:21:22.713Z,10.10
2017-03-25T19:22:21.914Z,10.20
2017-03-25T19:23:21.766Z,10.20
2017-03-25T19:24:21.413Z,10.20
2017-03-25T19:25:20.594Z,10.10
2017-03-25T19:26:19.743Z,10.20
2017-03-25T19:27:18.922Z,10.20
2017-03-25T19:28:18.065Z,10.20
2017-03-25T19:29:18.392Z,10.20
2017-03-25T19:30:17.570Z,10.20
2017-03-25T19:31:16.736Z,10.10
2017-03-25T19:32:15.891Z,10.10
2017-03-25T19:33:15.028Z,10.10
2017-03-25T19:34:14.280Z,10.10
2017-03-25T19:35:13.836Z,10.10
2017-03-25T19:36:13.031Z,10.10
2017-03-25T19:37:12.214Z,10.10
2017-03-25T19:38:11.352Z,10.10
2017-03-25T19:39:10.553Z,10.10
2017-03-25T19:40:09.812Z,10.10
2017-03-25T19:41:09.271Z,10.10
2017-03-25T19:42:08.519Z,10.00
2017-03-25T19:43:07.739Z,10.00
2017-03-25T19:44:06.878Z,10.00
2017-03-25T19:45:06.101Z,10.00
2017-03-25T19:46:05.316Z,10.00
2017-03-25T19:47:05.920Z,10.00
2017-03-25T19:48:05.183Z,10.00
2017-03-25T19:49:04.371Z,10.00
2017-03-25T19:50:03.506Z,10.00
2017-03-25T19:51:02.677Z,10.00
2017-03-25T19:52:01.834Z,10.00
2017-03-25T19:53:02.067Z,9.90
2017-03-25T19:54:01.251Z,9.90
2017-03-25T19:55:00.463Z,9.90
2017-03-25T19:55:59.691Z,9.90
2017-03-25T19:57:00.267Z,9.90
2017-03-25T19:57:59.460Z,10.00
2017-03-25T19:58:59.044Z,9.90
2017-03-25T19:59:58.285Z,9.90
2017-03-25T20:00:57.430Z,9.90
2017-03-25T20:01:56.590Z,9.90
2017-03-25T20:02:56.538Z,9.80
2017-03-25T20:03:55.703Z,9.90
2017-03-25T20:04:55.252Z,9.80
2017-03-25T20:05:54.449Z,9.80
2017-03-25T20:06:53.631Z,9.80
2017-03-25T20:07:52.791Z,9.80
2017-03-25T20:08:51.953Z,9.80
2017-03-25T20:09:51.124Z,9.80
2017-03-25T20:10:50.807Z,9.80
2017-03-25T20:11:50.684Z,9.70
2017-03-25T20:12:49.812Z,9.80
2017-03-25T20:13:48.977Z,9.80
2017-03-25T20:14:48.270Z,9.80
2017-03-25T20:15:47.551Z,9.80
2017-03-25T20:16:47.103Z,9.80
2017-03-25T20:17:46.350Z,9.80
2017-03-25T20:18:45.618Z,9.70
2017-03-25T20:19:44.804Z,9.70
2017-03-25T20:20:43.960Z,9.70
2017-03-25T20:21:43.621Z,9.70
2017-03-25T20:22:43.391Z,9.70
2017-03-25T20:23:42.630Z,9.70
2017-03-25T20:24:41.813Z,9.70
2017-03-25T20:25:41.107Z,9.70
2017-03-25T20:26:40.940Z,9.70
2017-03-25T20:27:40.209Z,9.70
2017-03-25T20:28:39.909Z,9.70
2017-03-25T20:29:39.097Z,9.60
2017-03-25T20:30:38.293Z,9.60
2017-03-25T20:31:37.367Z,9.60
2017-03-25T20:32:36.498Z,9.60
2017-03-25T20:33:35.824Z,9.60
2017-03-25T20:34:35.393Z,9.50
2017-03-25T20:35:34.507Z,9.50
2017-03-25T20:36:33.596Z,9.50
2017-03-25T20:37:32.683Z,9.50
2017-03-25T20:38:31.839Z,9.40
2017-03-25T20:39:31.743Z,9.40
2017-03-25T20:40:31.300Z,9.40
2017-03-25T20:41:30.437Z,9.40
2017-03-25T20:42:29.608Z,9.40
2017-03-25T20:43:29.492Z,9.40
2017-03-25T20:44:28.710Z,9.40
2017-03-25T20:45:27.902Z,9.40
2017-03-25T20:46:27.687Z,9.40
2017-03-25T20:47:26.912Z,9.30
2017-03-25T20:48:26.439Z,9.30
2017-03-25T20:49:25.690Z,9.20
2017-03-25T20:50:24.876Z,9.20
2017-03-25T20:51:24.244Z,9.20
2017-03-25T20:52:23.840Z,9.20
2017-03-25T20:53:23.947Z,9.20
2017-03-25T20:54:23.127Z,9.20
2017-03-25T20:55:22.403Z,9.20
2017-03-25T20:56:21.614Z,9.20
2017-03-25T20:57:20.784Z,9.20
2017-03-25T20:58:21.237Z,9.20
2017-03-25T20:59:20.368Z,9.20
2017-03-25T21:00:19.531Z,9.20
2017-03-25T21:01:18.681Z,9.20
2017-03-25T21:02:17.883Z,9.10
2017-03-25T21:03:17.060Z,9.20
2017-03-25T21:04:16.686Z,9.10
2017-03-25T21:05:15.889Z,9.10
2017-03-25T21:06:15.133Z,9.00
2017-03-25T21:07:14.372Z,9.00
2017-03-25T21:08:13.607Z,9.00
2017-03-25T21:09:12.944Z,9.00
2017-03-25T21:10:12.534Z,9.00
2017-03-25T21:11:11.707Z,9.00
2017-03-25T21:12:10.875Z,8.90
2017-03-25T21:13:10.101Z,8.90
2017-03-25T21:14:09.351Z,8.90
2017-03-25T21:15:08.590Z,8.90
2017-03-25T21:16:08.319Z,8.90
2017-03-25T21:17:07.566Z,8.90
2017-03-25T21:18:06.707Z,8.90
2017-03-25T21:19:06.040Z,8.80
2017-03-25T21:20:05.223Z,8.80
2017-03-25T21:21:04.455Z,8.80
2017-03-25T21:22:04.104Z,8.80
2017-03-25T21:23:03.543Z,8.80
2017-03-25T21:24:02.725Z,8.80
2017-03-25T21:25:01.970Z,8.80
2017-03-25T21:26:01.179Z,8.80
2017-03-25T21:27:00.341Z,8.80
2017-03-25T21:28:00.023Z,8.80
2017-03-25T21:28:59.268Z,8.80
2017-03-25T21:29:58.536Z,8.80
2017-03-25T21:30:58.705Z,8.80
2017-03-25T21:31:58.614Z,8.80
2017-03-25T21:32:58.534Z,8.80
2017-03-25T21:33:58.102Z,8.80
2017-03-25T21:34:57.291Z,8.80
2017-03-25T21:35:56.599Z,8.80
2017-03-25T21:36:55.752Z,8.70
2017-03-25T21:37:54.918Z,8.70
2017-03-25T21:38:54.284Z,8.70
2017-03-25T21:39:53.848Z,8.70
2017-03-25T21:40:53.034Z,8.70
2017-03-25T21:41:52.367Z,8.70
2017-03-25T21:42:51.555Z,8.70
2017-03-25T21:43:50.776Z,8.70
2017-03-25T21:44:50.043Z,8.70
2017-03-25T21:45:49.666Z,8.70
2017-03-25T21:46:48.826Z,8.70
2017-03-25T21:47:47.988Z,8.70
2017-03-25T21:48:47.145Z,8.70
2017-03-25T21:49:46.476Z,8.70
2017-03-25T21:50:45.626Z,8.60
2017-03-25T21:51:45.313Z,8.60
2017-03-25T21:52:45.241Z,8.60
2017-03-25T21:53:44.410Z,8.60
2017-03-25T21:54:43.589Z,8.60
2017-03-25T21:55:42.756Z,8.60
2017-03-25T21:56:41.906Z,8.60
2017-03-25T21:57:41.570Z,8.60
2017-03-25T21:58:39.994Z,8.60
2017-03-25T21:59:39.173Z,8.50
2017-03-25T22:00:38.325Z,8.50
2017-03-25T22:01:37.431Z,8.50
2017-03-25T22:02:36.598Z,8.50
2017-03-25T22:03:36.190Z,8.50
2017-03-25T22:04:35.388Z,8.50
2017-03-25T22:05:34.617Z,8.50
2017-03-25T22:06:33.866Z,8.50
2017-03-25T22:07:33.026Z,8.50
2017-03-25T22:08:32.215Z,8.50
2017-03-25T22:09:32.527Z,8.50
2017-03-25T22:10:31.710Z,8.50
2017-03-25T22:11:30.820Z,8.50
2017-03-25T22:12:30.015Z,8.60
2017-03-25T22:13:29.346Z,8.60
2017-03-25T22:14:28.512Z,8.60
2017-03-25T22:15:28.001Z,8.60
2017-03-25T22:16:27.177Z,8.60
2017-03-25T22:17:26.357Z,8.60
2017-03-25T22:18:25.616Z,8.70
2017-03-25T22:19:24.750Z,8.70
2017-03-25T22:20:23.922Z,8.70
2017-03-25T22:21:23.614Z,8.70
2017-03-25T22:22:22.813Z,8.70
2017-03-25T22:23:22.036Z,8.70
2017-03-25T22:24:21.228Z,8.70
2017-03-25T22:25:20.383Z,8.70
2017-03-25T22:26:19.516Z,8.70
2017-03-25T22:27:18.997Z,8.70
2017-03-25T22:28:18.162Z,8.70
2017-03-25T22:29:17.363Z,8.70
2017-03-25T22:30:16.566Z,8.70
2017-03-25T22:31:15.759Z,8.70
2017-03-25T22:32:14.959Z,8.70
2017-03-25T22:33:14.437Z,8.70
2017-03-25T22:34:13.557Z,8.70
2017-03-25T22:35:12.693Z,8.70
2017-03-25T22:36:11.879Z,8.70
2017-03-25T22:37:11.093Z,8.70
2017-03-25T22:38:11.012Z,8.80
2017-03-25T22:39:10.505Z,8.80
2017-03-25T22:40:09.717Z,8.80
2017-03-25T22:41:08.913Z,8.80
2017-03-25T22:42:08.081Z,8.80
2017-03-25T22:43:07.330Z,8.80
2017-03-25T22:44:06.518Z,8.80
2017-03-25T22:45:06.048Z,8.70
2017-03-25T22:46:05.252Z,8.70
2017-03-25T22:47:04.517Z,8.60
2017-03-25T22:48:03.684Z,8.60
2017-03-25T22:49:03.591Z,8.60
2017-03-25T22:50:03.497Z,8.50
2017-03-25T22:51:03.009Z,8.60
2017-03-25T22:52:02.198Z,8.50
2017-03-25T22:53:01.356Z,8.50
2017-03-25T22:54:00.510Z,8.50
2017-03-25T22:54:59.641Z,8.50
2017-03-25T22:55:58.781Z,8.50
2017-03-25T22:56:58.340Z,8.40
2017-03-25T22:57:57.499Z,8.40
2017-03-25T22:58:57.391Z,8.40
2017-03-25T22:59:56.547Z,8.40
2017-03-25T23:00:55.715Z,8.40
2017-03-25T23:01:54.856Z,8.30
2017-03-25T23:02:54.389Z,8.40
2017-03-25T23:03:53.536Z,8.40
2017-03-25T23:04:52.716Z,8.40
2017-03-25T23:05:51.874Z,8.40
2017-03-25T23:06:51.046Z,8.30
2017-03-25T23:07:50.333Z,8.30
2017-03-25T23:08:49.794Z,8.30
2017-03-25T23:09:48.978Z,8.30
2017-03-25T23:10:48.158Z,8.30
2017-03-25T23:11:47.279Z,8.30
2017-03-25T23:12:46.532Z,8.30
2017-03-25T23:13:45.677Z,8.30
2017-03-25T23:14:45.179Z,8.30
2017-03-25T23:15:44.368Z,8.30
2017-03-25T23:16:43.532Z,8.30
2017-03-25T23:17:42.708Z,8.30
2017-03-25T23:18:41.879Z,8.30
2017-03-25T23:19:41.782Z,8.30
2017-03-25T23:20:41.393Z,8.30
2017-03-25T23:21:40.628Z,8.30
2017-03-25T23:22:39.809Z,8.30
2017-03-25T23:23:38.975Z,8.30
2017-03-25T23:24:38.270Z,8.30
2017-03-25T23:25:37.483Z,8.30
2017-03-25T23:26:37.023Z,8.30
2017-03-25T23:27:36.919Z,8.20
2017-03-25T23:28:36.048Z,8.20
2017-03-25T23:29:35.203Z,8.20
2017-03-25T23:30:34.506Z,8.20
2017-03-25T23:31:33.726Z,8.20
2017-03-25T23:32:33.344Z,8.20
2017-03-25T23:33:32.486Z,8.20
2017-03-25T23:34:31.784Z,8.20
2017-03-25T23:35:30.982Z,8.20
2017-03-25T23:36:30.221Z,8.20
2017-03-25T23:37:29.395Z,8.20
2017-03-25T23:38:28.790Z,8.10
2017-03-25T23:39:27.951Z,8.20
2017-03-25T23:40:27.098Z,8.10
2017-03-25T23:41:26.270Z,8.10
2017-03-25T23:42:25.427Z,8.10
2017-03-25T23:43:24.769Z,8.10
2017-03-25T23:44:24.338Z,8.10
2017-03-25T23:45:23.498Z,8.10
2017-03-25T23:46:22.659Z,8.10
2017-03-25T23:47:21.939Z,8.10
2017-03-25T23:48:21.130Z,8.10
2017-03-25T23:49:20.270Z,8.10
2017-03-25T23:50:19.914Z,8.00
2017-03-25T23:51:19.054Z,8.00
2017-03-25T23:52:18.956Z,8.00
2017-03-25T23:53:18.114Z,8.00
2017-03-25T23:54:17.323Z,8.00
2017-03-25T23:55:16.569Z,8.00
2017-03-25T23:56:16.226Z,8.00
2017-03-25T23:57:15.397Z,8.00
2017-03-25T23:58:14.757Z,8.00
2017-03-25T23:59:13.925Z,8.00
